createdAt,value
2016-06-15T00:00:07.768Z,991.43
2016-06-15T00:01:08.069Z,991.41
2016-06-15T00:02:07.619Z,991.42
2016-06-15T00:03:07.669Z,991.4
2016-06-15T00:04:07.547Z,991.39
2016-06-15T00:05:07.612Z,991.38
2016-06-15T00:06:07.756Z,991.35
2016-06-15T00:07:07.790Z,991.35
2016-06-15T00:08:07.574Z,991.34
2016-06-15T00:09:07.499Z,991.35
2016-06-15T00:10:07.706Z,991.36
2016-06-15T00:11:07.318Z,991.34
2016-06-15T00:12:07.306Z,991.34
2016-06-15T00:13:07.371Z,991.31
2016-06-15T00:14:07.484Z,991.31
2016-06-15T00:15:07.487Z,991.3
2016-06-15T00:16:07.349Z,991.28
2016-06-15T00:17:07.462Z,991.3
2016-06-15T00:18:07.402Z,991.29
2016-06-15T00:19:07.280Z,991.25
2016-06-15T00:20:07.268Z,991.25
2016-06-15T00:21:07.287Z,991.26
2016-06-15T00:22:07.149Z,991.25
2016-06-15T00:23:07.403Z,991.24
2016-06-15T00:24:07.264Z,991.21
2016-06-15T00:25:07.081Z,991.17
2016-06-15T00:26:07.114Z,991.2
2016-06-15T00:27:07.165Z,991.17
2016-06-15T00:28:06.964Z,991.15
2016-06-15T00:29:06.936Z,991.16
2016-06-15T00:30:06.907Z,991.15
2016-06-15T00:31:06.895Z,991.15
2016-06-15T00:32:06.930Z,991.14
2016-06-15T00:33:06.855Z,991.16
2016-06-15T00:34:06.936Z,991.15
2016-06-15T00:35:07.079Z,991.15
2016-06-15T00:36:06.786Z,991.1
2016-06-15T00:37:06.773Z,991.14
2016-06-15T00:38:06.979Z,991.12
2016-06-15T00:39:06.874Z,991.11
2016-06-15T00:40:06.970Z,991.1
2016-06-15T00:41:06.894Z,991.12
2016-06-15T00:42:06.883Z,991.1
2016-06-15T00:43:06.807Z,991.1
2016-06-15T00:44:06.670Z,991.1
2016-06-15T00:45:06.642Z,991.05
2016-06-15T00:46:06.598Z,991.02
2016-06-15T00:47:06.554Z,991.06
2016-06-15T00:48:06.541Z,991.07
2016-06-15T00:49:06.497Z,991.05
2016-06-15T00:50:06.703Z,991.03
2016-06-15T00:51:06.707Z,991.04
2016-06-15T00:52:06.569Z,991.02
2016-06-15T00:53:06.417Z,991.04
2016-06-15T00:54:06.420Z,991.01
2016-06-15T00:55:06.469Z,991.02
2016-06-15T00:56:06.363Z,991.01
2016-06-15T00:57:06.491Z,991.02
2016-06-15T00:58:06.447Z,991.04
2016-06-15T00:59:06.455Z,991.02
2016-06-15T01:00:06.667Z,991
2016-06-15T01:01:06.424Z,991.03
2016-06-15T01:02:06.416Z,991.01
2016-06-15T01:04:06.391Z,991.05
2016-06-15T01:05:06.610Z,991.06
2016-06-15T01:06:06.532Z,991.03
2016-06-15T01:07:06.361Z,991.05
2016-06-15T01:08:06.542Z,991.02
2016-06-15T01:09:09.535Z,991.04
2016-06-15T01:10:06.339Z,991.06
2016-06-15T01:11:06.410Z,991.07
2016-06-15T01:12:06.433Z,991.07
2016-06-15T01:13:06.392Z,991.04
2016-06-15T01:14:06.506Z,991.04
2016-06-15T01:15:06.495Z,991.03
2016-06-15T01:16:06.547Z,991.04
2016-06-15T01:17:06.285Z,991.03
2016-06-15T01:18:06.384Z,991.05
2016-06-15T01:19:06.153Z,991.03
2016-06-15T01:20:06.157Z,991.07
2016-06-15T01:21:06.098Z,991.06
2016-06-15T01:22:06.211Z,991.04
2016-06-15T01:23:06.058Z,991.09
2016-06-15T01:24:06.108Z,991.1
2016-06-15T01:25:06.299Z,991.09
2016-06-15T01:26:06.317Z,991.09
2016-06-15T01:27:05.977Z,991.09
2016-06-15T01:28:05.979Z,991.12
2016-06-15T01:29:05.937Z,991.1
2016-06-15T01:30:05.923Z,991.12
2016-06-15T01:31:06.208Z,991.12
2016-06-15T01:32:06.054Z,991.12
2016-06-15T01:33:05.917Z,991.1
2016-06-15T01:34:08.982Z,991.07
2016-06-15T01:35:05.845Z,991.1
2016-06-15T01:36:05.878Z,991.1
2016-06-15T01:37:05.945Z,991.1
2016-06-15T01:38:05.948Z,991.11
2016-06-15T01:39:05.810Z,991.12
2016-06-15T01:40:05.735Z,991.12
2016-06-15T01:41:06.223Z,991.15
2016-06-15T01:42:05.741Z,991.15
2016-06-15T01:43:05.854Z,991.14
2016-06-15T01:44:05.811Z,991.14
2016-06-15T01:45:05.735Z,991.18
2016-06-15T01:46:05.894Z,991.14
2016-06-15T01:47:05.834Z,991.17
2016-06-15T01:48:08.854Z,991.18
2016-06-15T01:49:05.826Z,991.16
2016-06-15T01:50:05.498Z,991.2
2016-06-15T01:51:05.469Z,991.19
2016-06-15T01:52:05.675Z,991.21
2016-06-15T01:53:05.678Z,991.2
2016-06-15T01:54:05.603Z,991.19
2016-06-15T01:55:05.544Z,991.19
2016-06-15T01:56:05.625Z,991.19
2016-06-15T01:57:05.628Z,991.22
2016-06-15T01:58:05.522Z,991.21
2016-06-15T02:00:05.529Z,991.21
2016-06-15T02:01:05.391Z,991.21
2016-06-15T02:02:05.581Z,991.21
2016-06-15T02:03:05.381Z,991.17
2016-06-15T02:04:05.494Z,991.17
2016-06-15T02:05:05.356Z,991.15
2016-06-15T02:06:05.312Z,991.19
2016-06-15T02:07:05.409Z,991.18
2016-06-15T02:08:05.334Z,991.18
2016-06-15T02:09:05.071Z,991.14
2016-06-15T02:10:05.215Z,991.17
2016-06-15T02:11:05.312Z,991.12
2016-06-15T02:12:05.269Z,991.14
2016-06-15T02:13:05.240Z,991.12
2016-06-15T02:14:05.259Z,991.14
2016-06-15T02:15:05.090Z,991.11
2016-06-15T02:16:05.140Z,991.11
2016-06-15T02:17:05.127Z,991.1
2016-06-15T02:18:05.084Z,991.1
2016-06-15T02:19:05.133Z,991.1
2016-06-15T02:20:05.058Z,991.08
2016-06-15T02:21:08.049Z,991.1
2016-06-15T02:22:04.814Z,991.1
2016-06-15T02:23:04.818Z,991.09
2016-06-15T02:24:04.742Z,991.1
2016-06-15T02:25:04.824Z,991.08
2016-06-15T02:26:04.826Z,991.07
2016-06-15T02:27:04.798Z,991.11
2016-06-15T02:28:04.785Z,991.07
2016-06-15T02:29:04.758Z,991.08
2016-06-15T02:30:04.854Z,991.08
2016-06-15T02:31:04.874Z,991.06
2016-06-15T02:32:04.876Z,991.09
2016-06-15T02:33:04.692Z,991.07
2016-06-15T02:34:04.836Z,991.11
2016-06-15T02:35:05.011Z,991.08
2016-06-15T02:36:04.732Z,991.06
2016-06-15T02:37:04.704Z,991.08
2016-06-15T02:38:04.535Z,991.01
2016-06-15T02:39:04.694Z,991.03
2016-06-15T02:40:04.541Z,991.05
2016-06-15T02:41:04.513Z,991.04
2016-06-15T02:42:04.626Z,991.06
2016-06-15T02:43:04.503Z,991.1
2016-06-15T02:44:04.460Z,991.09
2016-06-15T02:45:04.401Z,991.05
2016-06-15T02:46:04.357Z,991.06
2016-06-15T02:47:04.469Z,991.08
2016-06-15T02:48:04.472Z,991.06
2016-06-15T02:49:04.491Z,991.06
2016-06-15T02:50:04.432Z,991.06
2016-06-15T02:51:04.232Z,991.07
2016-06-15T02:52:04.344Z,991.04
2016-06-15T02:53:04.426Z,991.04
2016-06-15T02:54:04.365Z,991.02
2016-06-15T02:55:04.073Z,990.97
2016-06-15T02:56:04.044Z,991
2016-06-15T02:57:04.297Z,991.03
2016-06-15T02:58:04.206Z,990.97
2016-06-15T02:59:04.085Z,990.96
2016-06-15T03:00:04.055Z,990.97
2016-06-15T03:01:04.137Z,990.94
2016-06-15T03:02:04.047Z,990.95
2016-06-15T03:03:04.113Z,990.98
2016-06-15T03:04:04.084Z,990.95
2016-06-15T03:05:04.040Z,990.96
2016-06-15T03:06:07.074Z,990.95
2016-06-15T03:07:03.813Z,990.99
2016-06-15T03:08:03.784Z,991.02
2016-06-15T03:09:03.772Z,990.98
2016-06-15T03:10:03.900Z,990.98
2016-06-15T03:11:03.714Z,991.03
2016-06-15T03:12:03.984Z,990.97
2016-06-15T03:13:03.971Z,990.94
2016-06-15T03:14:03.677Z,990.96
2016-06-15T03:15:03.868Z,990.94
2016-06-15T03:16:03.652Z,990.94
2016-06-15T03:17:03.655Z,990.91
2016-06-15T03:18:03.737Z,990.92
2016-06-15T03:19:03.724Z,990.92
2016-06-15T03:20:03.633Z,990.96
2016-06-15T03:21:04.355Z,990.92
2016-06-15T03:22:03.483Z,990.95
2016-06-15T03:23:03.658Z,990.9
2016-06-15T03:24:03.427Z,990.91
2016-06-15T03:25:03.414Z,990.86
2016-06-15T03:26:06.668Z,990.85
2016-06-15T03:27:03.421Z,990.82
2016-06-15T03:28:03.549Z,990.81
2016-06-15T03:29:03.489Z,990.83
2016-06-15T03:30:03.570Z,990.81
2016-06-15T03:31:03.292Z,990.8
2016-06-15T03:32:03.264Z,990.8
2016-06-15T03:33:03.267Z,990.78
2016-06-15T03:34:03.223Z,990.75
2016-06-15T03:35:03.211Z,990.74
2016-06-15T03:36:03.182Z,990.75
2016-06-15T03:37:03.342Z,990.72
2016-06-15T03:38:03.267Z,990.75
2016-06-15T03:39:03.254Z,990.7
2016-06-15T03:40:03.101Z,990.73
2016-06-15T03:41:03.073Z,990.67
2016-06-15T03:42:03.170Z,990.64
2016-06-15T03:43:03.266Z,990.64
2016-06-15T03:44:03.129Z,990.66
2016-06-15T03:45:02.976Z,990.67
2016-06-15T03:46:02.964Z,990.71
2016-06-15T03:47:02.950Z,990.71
2016-06-15T03:49:03.191Z,990.73
2016-06-15T03:50:02.882Z,990.77
2016-06-15T03:51:02.915Z,990.78
2016-06-15T03:52:02.951Z,990.73
2016-06-15T03:53:02.796Z,990.73
2016-06-15T03:54:02.769Z,990.69
2016-06-15T03:55:02.756Z,990.69
2016-06-15T03:56:02.978Z,990.69
2016-06-15T03:57:02.700Z,990.72
2016-06-15T03:58:03.031Z,990.71
2016-06-15T03:59:02.723Z,990.67
2016-06-15T04:00:02.928Z,990.69
2016-06-15T04:01:02.837Z,990.65
2016-06-15T04:02:02.638Z,990.69
2016-06-15T04:03:02.827Z,990.67
2016-06-15T04:04:02.816Z,990.7
2016-06-15T04:05:02.537Z,990.69
2016-06-15T04:06:02.619Z,990.69
2016-06-15T04:07:02.528Z,990.72
2016-06-15T04:08:02.797Z,990.7
2016-06-15T04:09:02.456Z,990.67
2016-06-15T04:10:02.428Z,990.71
2016-06-15T04:11:02.415Z,990.74
2016-06-15T04:12:02.387Z,990.74
2016-06-15T04:13:05.483Z,990.74
2016-06-15T04:14:02.361Z,990.71
2016-06-15T04:15:02.318Z,990.69
2016-06-15T04:16:02.290Z,990.7
2016-06-15T04:17:02.277Z,990.71
2016-06-15T04:18:02.265Z,990.67
2016-06-15T04:19:02.237Z,990.64
2016-06-15T04:20:02.552Z,990.64
2016-06-15T04:21:02.196Z,990.64
2016-06-15T04:22:02.496Z,990.6
2016-06-15T04:23:02.624Z,990.62
2016-06-15T04:24:02.330Z,990.63
2016-06-15T04:25:02.100Z,990.67
2016-06-15T04:26:02.102Z,990.65
2016-06-15T04:27:02.324Z,990.69
2016-06-15T04:28:02.217Z,990.65
2016-06-15T04:29:02.033Z,990.67
2016-06-15T04:30:01.990Z,990.66
2016-06-15T04:31:01.977Z,990.67
2016-06-15T04:32:02.136Z,990.69
2016-06-15T04:33:01.983Z,990.7
2016-06-15T04:34:02.127Z,990.74
2016-06-15T04:35:01.942Z,990.73
2016-06-15T04:36:01.992Z,990.79
2016-06-15T04:37:02.026Z,990.8
2016-06-15T04:38:01.826Z,990.83
2016-06-15T04:39:02.079Z,990.81
2016-06-15T04:40:01.801Z,990.81
2016-06-15T04:41:01.758Z,990.81
2016-06-15T04:42:01.729Z,990.8
2016-06-15T04:43:02.122Z,990.78
2016-06-15T04:44:01.922Z,990.79
2016-06-15T04:45:01.878Z,990.82
2016-06-15T04:46:01.647Z,990.83
2016-06-15T04:47:01.901Z,990.83
2016-06-15T04:48:01.590Z,990.85
2016-06-15T04:49:01.579Z,990.82
2016-06-15T04:50:01.566Z,990.83
2016-06-15T04:51:01.585Z,990.88
2016-06-15T04:52:01.572Z,990.86
2016-06-15T04:53:01.497Z,990.88
2016-06-15T04:54:01.469Z,990.89
2016-06-15T04:55:01.441Z,990.9
2016-06-15T04:56:01.522Z,990.85
2016-06-15T04:57:01.400Z,990.9
2016-06-15T04:58:01.372Z,990.88
2016-06-15T04:59:01.359Z,990.9
2016-06-15T05:00:01.660Z,990.9
2016-06-15T05:01:01.427Z,990.91
2016-06-15T05:02:01.306Z,990.92
2016-06-15T05:03:01.262Z,990.93
2016-06-15T05:04:04.312Z,990.96
2016-06-15T05:05:01.393Z,990.96
2016-06-15T05:07:01.196Z,990.95
2016-06-15T05:08:01.168Z,991
2016-06-15T05:09:01.141Z,990.97
2016-06-15T05:10:01.252Z,990.95
2016-06-15T05:11:04.209Z,990.97
2016-06-15T05:12:01.274Z,990.96
2016-06-15T05:13:01.247Z,990.97
2016-06-15T05:14:01.265Z,990.92
2016-06-15T05:15:01.065Z,990.94
2016-06-15T05:16:01.271Z,990.92
2016-06-15T05:17:01.243Z,990.95
2016-06-15T05:18:01.246Z,990.93
2016-06-15T05:19:01.249Z,990.94
2016-06-15T05:20:01.206Z,990.94
2016-06-15T05:21:01.161Z,990.96
2016-06-15T05:22:00.978Z,990.98
2016-06-15T05:23:01.120Z,991
2016-06-15T05:24:01.015Z,991.03
2016-06-15T05:25:01.017Z,991.02
2016-06-15T05:26:01.052Z,991.02
2016-06-15T05:27:01.054Z,991.05
2016-06-15T05:28:00.777Z,991.06
2016-06-15T05:29:00.717Z,991.05
2016-06-15T05:30:00.705Z,991.05
2016-06-15T05:31:00.661Z,991.05
2016-06-15T05:32:00.648Z,991.05
2016-06-15T05:33:00.839Z,991.04
2016-06-15T05:34:00.607Z,991.06
2016-06-15T05:35:00.579Z,991.05
2016-06-15T05:36:00.552Z,991.06
2016-06-15T05:37:00.554Z,991.08
2016-06-15T05:38:00.510Z,991.1
2016-06-15T05:39:00.513Z,991.1
2016-06-15T05:40:00.469Z,991.12
2016-06-15T05:41:00.691Z,991.1
2016-06-15T05:42:00.726Z,991.1
2016-06-15T05:43:00.635Z,991.12
2016-06-15T05:44:00.387Z,991.15
2016-06-15T05:45:00.657Z,991.16
2016-06-15T05:46:00.535Z,991.16
2016-06-15T05:47:00.664Z,991.22
2016-06-15T05:48:00.619Z,991.25
2016-06-15T05:49:00.623Z,991.27
2016-06-15T05:50:00.563Z,991.31
2016-06-15T05:51:00.566Z,991.27
2016-06-15T05:52:00.537Z,991.28
2016-06-15T05:53:03.495Z,991.3
2016-06-15T05:54:00.340Z,991.34
2016-06-15T05:55:00.360Z,991.3
2016-06-15T05:57:00.444Z,991.33
2016-06-15T05:59:03.528Z,991.38
2016-06-15T06:00:03.453Z,991.36
2016-06-15T06:01:03.534Z,991.35
2016-06-15T06:02:03.459Z,991.37
2016-06-15T06:03:03.322Z,991.37
2016-06-15T06:04:03.481Z,991.36
2016-06-15T06:05:03.297Z,991.38
2016-06-15T06:06:03.174Z,991.38
2016-06-15T06:07:03.412Z,991.39
2016-06-15T06:08:03.212Z,991.42
2016-06-15T06:09:03.309Z,991.42
2016-06-15T06:10:03.155Z,991.4
2016-06-15T06:11:03.284Z,991.41
2016-06-15T06:12:03.224Z,991.42
2016-06-15T06:13:02.977Z,991.4
2016-06-15T06:14:03.138Z,991.42
2016-06-15T06:15:02.999Z,991.42
2016-06-15T06:16:06.144Z,991.38
2016-06-15T06:17:03.099Z,991.42
2016-06-15T06:18:03.118Z,991.4
2016-06-15T06:19:03.089Z,991.42
2016-06-15T06:20:03.046Z,991.39
2016-06-15T06:21:03.081Z,991.42
2016-06-15T06:22:03.068Z,991.43
2016-06-15T06:23:03.024Z,991.43
2016-06-15T06:24:03.027Z,991.44
2016-06-15T06:25:02.733Z,991.44
2016-06-15T06:26:12.017Z,991.47
2016-06-15T06:27:02.911Z,991.44
2016-06-15T06:28:02.992Z,991.43
2016-06-15T06:29:02.948Z,991.44
2016-06-15T06:30:07.312Z,991.42
2016-06-15T06:31:02.892Z,991.44
2016-06-15T06:32:02.943Z,991.43
2016-06-15T06:33:02.773Z,991.43
2016-06-15T06:34:02.777Z,991.48
2016-06-15T06:35:02.655Z,991.5
2016-06-15T06:36:02.798Z,991.49
2016-06-15T06:37:02.473Z,991.47
2016-06-15T06:38:02.725Z,991.49
2016-06-15T06:39:02.667Z,991.5
2016-06-15T06:40:02.701Z,991.53
2016-06-15T06:41:02.610Z,991.52
2016-06-15T06:42:02.660Z,991.51
2016-06-15T06:43:02.569Z,991.56
2016-06-15T06:44:02.635Z,991.57
2016-06-15T06:45:02.544Z,991.57
2016-06-15T06:46:02.595Z,991.57
2016-06-15T06:47:02.441Z,991.55
2016-06-15T06:48:02.960Z,991.59
2016-06-15T06:49:02.291Z,991.63
2016-06-15T06:50:02.326Z,991.64
2016-06-15T06:51:02.657Z,991.61
2016-06-15T06:52:02.332Z,991.56
2016-06-15T06:53:02.319Z,991.62
2016-06-15T06:54:02.353Z,991.58
2016-06-15T06:55:02.075Z,991.65
2016-06-15T06:56:02.079Z,991.63
2016-06-15T06:57:02.034Z,991.67
2016-06-15T06:58:02.023Z,991.65
2016-06-15T06:59:04.993Z,991.65
2016-06-15T07:00:02.216Z,991.63
2016-06-15T07:01:02.125Z,991.66
2016-06-15T07:02:02.222Z,991.65
2016-06-15T07:03:02.116Z,991.65
2016-06-15T07:04:02.041Z,991.66
2016-06-15T07:05:02.059Z,991.65
2016-06-15T07:06:01.844Z,991.65
2016-06-15T07:07:02.472Z,991.67
2016-06-15T07:08:02.068Z,991.71
2016-06-15T07:09:02.103Z,991.71
2016-06-15T07:10:02.043Z,991.66
2016-06-15T07:11:01.968Z,991.69
2016-06-15T07:12:02.019Z,991.7
2016-06-15T07:13:02.005Z,991.63
2016-06-15T07:14:01.884Z,991.64
2016-06-15T07:15:01.652Z,991.65
2016-06-15T07:16:01.640Z,991.67
2016-06-15T07:17:01.846Z,991.64
2016-06-15T07:18:01.834Z,991.66
2016-06-15T07:19:01.759Z,991.64
2016-06-15T07:20:01.808Z,991.62
2016-06-15T07:21:01.655Z,991.66
2016-06-15T07:22:01.753Z,991.62
2016-06-15T07:23:01.817Z,991.63
2016-06-15T07:24:01.758Z,991.67
2016-06-15T07:25:01.558Z,991.69
2016-06-15T07:26:01.546Z,991.72
2016-06-15T07:28:01.505Z,991.71
2016-06-15T07:29:01.540Z,991.72
2016-06-15T07:30:01.433Z,991.73
2016-06-15T07:32:01.642Z,991.69
2016-06-15T07:33:01.286Z,991.74
2016-06-15T07:34:01.570Z,991.71
2016-06-15T07:35:01.261Z,991.68
2016-06-15T07:36:01.264Z,991.73
2016-06-15T07:37:01.501Z,991.72
2016-06-15T07:38:01.410Z,991.74
2016-06-15T07:39:01.476Z,991.74
2016-06-15T07:40:01.354Z,991.72
2016-06-15T07:41:01.389Z,991.69
2016-06-15T07:42:01.095Z,991.78
2016-06-15T07:43:01.128Z,991.71
2016-06-15T07:44:01.320Z,991.71
2016-06-15T07:45:01.073Z,991.71
2016-06-15T07:46:01.013Z,991.71
2016-06-15T07:47:01.313Z,991.69
2016-06-15T07:48:01.254Z,991.66
2016-06-15T07:49:01.194Z,991.68
2016-06-15T07:50:01.119Z,991.7
2016-06-15T07:51:01.122Z,991.67
2016-06-15T07:52:01.219Z,991.68
2016-06-15T07:53:01.192Z,991.61
2016-06-15T07:54:01.100Z,991.65
2016-06-15T07:55:01.025Z,991.59
2016-06-15T07:56:01.169Z,991.62
2016-06-15T07:57:01.079Z,991.61
2016-06-15T07:58:01.066Z,991.61
2016-06-15T07:59:00.927Z,991.64
2016-06-15T08:00:01.025Z,991.64
2016-06-15T08:01:00.700Z,991.67
2016-06-15T08:02:03.812Z,991.63
2016-06-15T08:04:00.928Z,991.67
2016-06-15T08:05:00.884Z,991.66
2016-06-15T08:06:00.621Z,991.69
2016-06-15T08:07:00.985Z,991.67
2016-06-15T08:08:00.846Z,991.69
2016-06-15T08:09:00.834Z,991.68
2016-06-15T08:10:00.744Z,991.69
2016-06-15T08:11:00.527Z,991.7
2016-06-15T08:12:00.484Z,991.67
2016-06-15T08:13:00.470Z,991.66
2016-06-15T08:14:00.459Z,991.6
2016-06-15T08:15:00.415Z,991.65
2016-06-15T08:16:00.402Z,991.63
2016-06-15T08:17:00.438Z,991.65
2016-06-15T08:18:00.361Z,991.59
2016-06-15T08:19:00.333Z,991.61
2016-06-15T08:20:00.305Z,991.57
2016-06-15T08:21:00.292Z,991.53
2016-06-15T08:22:00.343Z,991.51
2016-06-15T08:23:09.439Z,991.49
2016-06-15T08:24:01.880Z,991.47
2016-06-15T08:25:00.212Z,991.44
2016-06-15T08:26:00.730Z,991.4
2016-06-15T08:27:03.483Z,991.4
2016-06-15T08:29:25.992Z,991.43
2016-06-15T08:30:25.964Z,991.4
2016-06-15T08:31:25.717Z,991.43
2016-06-15T08:32:25.830Z,991.42
2016-06-15T08:33:25.801Z,991.4
2016-06-15T08:34:25.618Z,991.41
2016-06-15T08:35:25.808Z,991.37
2016-06-15T08:36:34.764Z,991.38
2016-06-15T08:37:25.736Z,991.37
2016-06-15T08:38:25.832Z,991.37
2016-06-15T08:40:25.745Z,991.31
2016-06-15T08:41:25.732Z,991.37
2016-06-15T08:42:25.595Z,991.39
2016-06-15T08:43:25.582Z,991.37
2016-06-15T08:44:26.116Z,991.34
2016-06-15T08:45:25.652Z,991.36
2016-06-15T08:46:25.919Z,991.39
2016-06-15T08:47:25.517Z,991.36
2016-06-15T08:48:25.285Z,991.39
2016-06-15T08:49:25.600Z,991.36
2016-06-15T08:50:25.526Z,991.35
2016-06-15T08:51:25.544Z,991.38
2016-06-15T08:52:25.391Z,991.42
2016-06-15T08:53:25.378Z,991.41
2016-06-15T08:54:25.444Z,991.41
2016-06-15T08:55:25.463Z,991.42
2016-06-15T08:56:25.310Z,991.46
2016-06-15T08:57:25.172Z,991.44
2016-06-15T08:58:28.253Z,991.39
2016-06-15T08:59:25.303Z,991.43
2016-06-15T09:00:25.368Z,991.34
2016-06-15T09:01:25.122Z,991.37
2016-06-15T09:02:25.110Z,991.31
2016-06-15T09:03:25.175Z,991.32
2016-06-15T09:04:24.960Z,991.3
2016-06-15T09:05:25.072Z,991.3
2016-06-15T09:06:25.903Z,991.29
2016-06-15T09:07:25.219Z,991.27
2016-06-15T09:08:24.922Z,991.32
2016-06-15T09:09:24.848Z,991.32
2016-06-15T09:10:24.834Z,991.32
2016-06-15T09:11:24.806Z,991.34
2016-06-15T09:12:24.778Z,991.35
2016-06-15T09:13:24.804Z,991.34
2016-06-15T09:14:24.763Z,991.36
2016-06-15T09:15:24.717Z,991.35
2016-06-15T09:16:25.018Z,991.39
2016-06-15T09:17:24.677Z,991.34
2016-06-15T09:18:24.681Z,991.42
2016-06-15T09:19:24.636Z,991.39
2016-06-15T09:20:24.608Z,991.36
2016-06-15T09:21:24.612Z,991.34
2016-06-15T09:22:24.583Z,991.33
2016-06-15T09:23:24.571Z,991.32
2016-06-15T09:24:24.542Z,991.29
2016-06-15T09:25:24.530Z,991.26
2016-06-15T09:26:24.501Z,991.27
2016-06-15T09:27:24.489Z,991.27
2016-06-15T09:28:24.508Z,991.3
2016-06-15T09:29:24.443Z,991.32
2016-06-15T09:30:24.430Z,991.34
2016-06-15T09:31:24.418Z,991.37
2016-06-15T09:32:24.375Z,991.39
2016-06-15T09:33:24.362Z,991.4
2016-06-15T09:34:24.348Z,991.43
2016-06-15T09:35:24.321Z,991.46
2016-06-15T09:36:24.309Z,991.42
2016-06-15T09:37:24.326Z,991.33
2016-06-15T09:38:24.251Z,991.34
2016-06-15T09:39:24.254Z,991.36
2016-06-15T09:40:24.227Z,991.3
2016-06-15T09:41:24.214Z,991.34
2016-06-15T09:42:24.170Z,991.29
2016-06-15T09:43:24.158Z,991.34
2016-06-15T09:44:24.129Z,991.34
2016-06-15T09:45:24.118Z,991.27
2016-06-15T09:46:24.089Z,991.28
2016-06-15T09:47:24.076Z,991.28
2016-06-15T09:48:24.079Z,991.31
2016-06-15T09:49:24.036Z,991.29
2016-06-15T09:50:24.007Z,991.31
2016-06-15T09:51:23.995Z,991.32
2016-06-15T09:52:23.983Z,991.33
2016-06-15T09:53:23.954Z,991.3
2016-06-15T09:54:23.956Z,991.28
2016-06-15T09:55:23.913Z,991.31
2016-06-15T09:56:23.932Z,991.36
2016-06-15T09:57:23.873Z,991.32
2016-06-15T09:58:26.922Z,991.3
2016-06-15T09:59:23.848Z,991.31
2016-06-15T10:00:23.803Z,991.38
2016-06-15T10:01:23.791Z,991.37
2016-06-15T10:02:23.778Z,991.33
2016-06-15T10:03:23.750Z,991.32
2016-06-15T10:04:23.741Z,991.31
2016-06-15T10:05:23.784Z,991.31
2016-06-15T10:06:23.795Z,991.28
2016-06-15T10:07:23.824Z,991.27
2016-06-15T10:08:23.835Z,991.27
2016-06-15T10:09:23.834Z,991.25
2016-06-15T10:10:23.837Z,991.27
2016-06-15T10:11:23.821Z,991.28
2016-06-15T10:12:23.824Z,991.23
2016-06-15T10:13:23.826Z,991.24
2016-06-15T10:14:23.808Z,991.24
2016-06-15T10:15:23.785Z,991.23
2016-06-15T10:16:25.980Z,991.25
2016-06-15T10:17:23.770Z,991.28
2016-06-15T10:18:23.747Z,991.27
2016-06-15T10:19:23.739Z,991.22
2016-06-15T10:20:23.712Z,991.24
2016-06-15T10:21:23.686Z,991.23
2016-06-15T10:22:24.363Z,991.26
2016-06-15T10:23:23.649Z,991.28
2016-06-15T10:24:23.638Z,991.3
2016-06-15T10:25:23.626Z,991.31
2016-06-15T10:26:23.614Z,991.3
2016-06-15T10:27:23.601Z,991.26
2016-06-15T10:28:23.573Z,991.21
2016-06-15T10:29:23.546Z,991.24
2016-06-15T10:30:23.534Z,991.25
2016-06-15T10:31:23.568Z,991.25
2016-06-15T10:32:23.494Z,991.25
2016-06-15T10:33:23.465Z,991.24
2016-06-15T10:34:23.454Z,991.25
2016-06-15T10:35:24.582Z,991.26
2016-06-15T10:36:24.272Z,991.21
2016-06-15T10:37:25.198Z,991.23
2016-06-15T10:38:23.700Z,991.26
2016-06-15T10:39:23.922Z,991.23
2016-06-15T10:40:27.801Z,991.22
2016-06-15T10:41:30.788Z,991.19
2016-06-15T10:42:52.104Z,991.15
2016-06-15T10:43:43.466Z,991.16
2016-06-15T10:44:43.438Z,991.1
2016-06-15T10:45:44.722Z,991.09
2016-06-15T10:46:46.632Z,991.12
2016-06-15T10:48:04.384Z,991.13
2016-06-15T10:49:19.329Z,991.14
2016-06-15T10:50:13.707Z,991.06
2016-06-15T10:51:19.679Z,990.99
2016-06-15T10:52:45.369Z,990.99
2016-06-15T10:54:44.766Z,991.05
2016-06-15T10:55:51.925Z,991.03
2016-06-15T10:56:51.881Z,991.05
2016-06-15T10:57:51.869Z,991.04
2016-06-15T10:58:51.856Z,991.03
2016-06-15T10:59:51.829Z,991.01
2016-06-15T11:00:51.816Z,991.04
2016-06-15T11:01:51.788Z,991.02
2016-06-15T11:02:51.775Z,990.99
2016-06-15T11:03:51.778Z,991.02
2016-06-15T11:04:51.750Z,990.98
2016-06-15T11:05:51.815Z,990.95
2016-06-15T11:06:52.132Z,991.05
2016-06-15T11:07:52.103Z,991.02
2016-06-15T11:08:51.653Z,991.03
2016-06-15T11:09:51.657Z,991.06
2016-06-15T11:10:51.612Z,991.09
2016-06-15T11:11:51.600Z,991.07
2016-06-15T11:12:51.572Z,991.12
2016-06-15T11:13:51.559Z,991.06
2016-06-15T11:14:51.546Z,991.09
2016-06-15T11:15:51.518Z,991.08
2016-06-15T11:16:51.506Z,991.07
2016-06-15T11:17:51.477Z,991.1
2016-06-15T11:18:51.481Z,991.19
2016-06-15T11:19:51.452Z,991.21
2016-06-15T11:20:51.472Z,991.28
2016-06-15T11:21:51.444Z,991.33
2016-06-15T11:22:52.227Z,991.35
2016-06-15T11:23:51.370Z,991.35
2016-06-15T11:24:51.343Z,991.39
2016-06-15T11:25:51.330Z,991.36
2016-06-15T11:26:51.318Z,991.3
2016-06-15T11:27:51.290Z,991.31
2016-06-15T11:28:51.604Z,991.33
2016-06-15T11:29:51.249Z,991.37
2016-06-15T11:30:51.346Z,991.36
2016-06-15T11:31:51.224Z,991.34
2016-06-15T11:32:51.195Z,991.28
2016-06-15T11:33:51.183Z,991.28
2016-06-15T11:34:51.154Z,991.29
2016-06-15T11:35:51.158Z,991.25
2016-06-15T11:36:51.115Z,991.25
2016-06-15T11:37:51.117Z,991.24
2016-06-15T11:38:51.073Z,991.24
2016-06-15T11:39:51.076Z,991.25
2016-06-15T11:40:51.063Z,991.27
2016-06-15T11:41:51.036Z,991.31
2016-06-15T11:42:51.008Z,991.26
2016-06-15T11:43:51.057Z,991.27
2016-06-15T11:44:50.998Z,991.31
2016-06-15T11:45:50.954Z,991.31
2016-06-15T11:46:50.942Z,991.33
2016-06-15T11:47:51.163Z,991.3
2016-06-15T11:48:50.916Z,991.28
2016-06-15T11:49:50.873Z,991.28
2016-06-15T11:50:50.860Z,991.29
2016-06-15T11:51:50.832Z,991.27
2016-06-15T11:52:50.820Z,991.34
2016-06-15T11:53:50.807Z,991.31
2016-06-15T11:54:50.795Z,991.36
2016-06-15T11:55:50.765Z,991.39
2016-06-15T11:56:50.738Z,991.37
2016-06-15T11:57:50.757Z,991.37
2016-06-15T11:58:50.697Z,991.37
2016-06-15T11:59:50.701Z,991.38
2016-06-15T12:00:50.672Z,991.42
2016-06-15T12:01:50.645Z,991.37
2016-06-15T12:02:50.632Z,991.4
2016-06-15T12:03:50.604Z,991.43
2016-06-15T12:04:50.622Z,991.41
2016-06-15T12:05:50.593Z,991.42
2016-06-15T12:06:50.550Z,991.44
2016-06-15T12:07:51.005Z,991.47
2016-06-15T12:08:50.556Z,991.41
2016-06-15T12:09:50.497Z,991.45
2016-06-15T12:10:50.469Z,991.43
2016-06-15T12:11:50.440Z,991.41
2016-06-15T12:12:50.443Z,991.47
2016-06-15T12:13:50.415Z,991.46
2016-06-15T12:14:50.403Z,991.44
2016-06-15T12:15:50.375Z,991.46
2016-06-15T12:16:50.346Z,991.48
2016-06-15T12:17:50.333Z,991.46
2016-06-15T12:18:50.337Z,991.49
2016-06-15T12:19:50.293Z,991.48
2016-06-15T12:20:50.281Z,991.45
2016-06-15T12:21:50.284Z,991.5
2016-06-15T12:22:50.255Z,991.47
2016-06-15T12:23:50.227Z,991.5
2016-06-15T12:24:50.199Z,991.48
2016-06-15T12:25:50.186Z,991.48
2016-06-15T12:26:50.158Z,991.48
2016-06-15T12:27:50.224Z,991.5
2016-06-15T12:28:50.117Z,991.47
2016-06-15T12:29:50.106Z,991.48
2016-06-15T12:30:50.171Z,991.48
2016-06-15T12:31:50.065Z,991.49
2016-06-15T12:32:50.036Z,991.44
2016-06-15T12:33:50.039Z,991.42
2016-06-15T12:34:50.011Z,991.51
2016-06-15T12:35:49.999Z,991.43
2016-06-15T12:36:50.016Z,991.44
2016-06-15T12:37:49.958Z,991.42
2016-06-15T12:38:49.930Z,991.45
2016-06-15T12:39:49.917Z,991.44
2016-06-15T12:40:49.905Z,991.42
2016-06-15T12:41:49.876Z,991.43
2016-06-15T12:42:49.848Z,991.42
2016-06-15T12:43:49.835Z,991.47
2016-06-15T12:44:52.824Z,991.47